Attila, Illinois
Current Conditions -  °F | °C
As of 11:00 AM on Thursday 30 Oct 2014 (Local Time) from KMWA Reporting Station
Clear Clear  
Wind Chill: 55°   Ceiling: Unl
Heat Index: 55°   Visibility: 20mi
Dew Point: 41°   Wind: 12mph
Humidity: 58%   Direction: 190°S
Pressure: 30.16"   Gusts: NA
Location:  37.7887°N, 88.8655°W
Report Text: KMWA 301600Z 19010KT 20SM SKC 13/05 A3016
Loading
Personal Weather Stations






























Interactive Weather Map New forecast layout! Learn more

10-Day Weather Forecast

Advertisements
Track Severe Weather on mobile